Time;durP1;ratioP1;P1;durP2;ratioP2;P2;SDS_P1;SDS_P2;PMS_P1;PMS_P2;Temp;Humidity;BMP_temperature;BMP_pressure;BME280_temperature;BME280_humidity;BME280_pressure;Samples;Min_cycle;Max_cycle;Signal;HPM_P1;HPM_P2
2022/06/12 00:02:52;;;;;;;7.60;3.70;;;;;;;18.04;55.23;99540.47;233156;1220;138863;-57
2022/06/12 00:07:56;;;;;;;11.30;4.30;;;;;;;18.04;55.56;99542.64;233100;1220;139379;-54
2022/06/12 00:12:59;;;;;;;7.00;4.00;;;;;;;18.03;55.43;99538.06;233156;1220;139673;-54
2022/06/12 00:18:03;;;;;;;7.00;3.80;;;;;;;17.98;55.79;99533.05;233292;1220;138826;-56
2022/06/12 00:23:13;;;;;;;8.20;3.70;;;;;;;17.94;55.93;99531.26;233229;1219;138593;-54
2022/06/12 00:28:16;;;;;;;8.60;4.10;;;;;;;17.89;56.04;99521.80;233167;1219;139102;-57
2022/06/12 00:33:19;;;;;;;7.10;3.60;;;;;;;17.91;56.14;99526.98;233348;1220;138782;-58
2022/06/12 00:38:23;;;;;;;8.30;3.90;;;;;;;17.93;56.23;99524.16;233260;1220;138561;-57
2022/06/12 00:43:31;;;;;;;11.50;3.70;;;;;;;17.89;56.31;99521.41;233208;1220;139072;-55
2022/06/12 00:48:37;;;;;;;8.10;3.90;;;;;;;17.81;56.23;99516.36;233296;1220;138548;-54
2022/06/12 00:53:55;;;;;;;7.80;3.40;;;;;;;17.78;56.53;99517.53;233217;1220;139409;-57
2022/06/12 00:59:13;;;;;;;10.10;3.50;;;;;;;17.72;56.81;99514.73;233391;1219;137748;-54
2022/06/12 01:09:42;;;;;;;8.40;3.80;;;;;;;17.83;56.69;99504.92;233454;1217;138954;-54
2022/06/12 01:14:49;;;;;;;8.60;3.70;;;;;;;17.90;56.77;99506.63;233245;1219;138749;-57
2022/06/12 01:20:00;;;;;;;6.10;3.20;;;;;;;17.88;56.85;99502.52;233264;1220;138657;-53
2022/06/12 01:25:19;;;;;;;7.80;3.20;;;;;;;17.89;56.76;99497.20;233243;1219;138621;-56
2022/06/12 01:31:00;;;;;;;7.70;3.20;;;;;;;17.89;56.67;99496.66;233266;1219;139224;-55
2022/06/12 01:36:20;;;;;;;9.70;3.30;;;;;;;17.87;56.50;99491.85;232981;1219;139743;-56
2022/06/12 01:41:26;;;;;;;4.40;3.30;;;;;;;17.87;56.74;99490.58;233354;1220;138256;-56
2022/06/12 01:46:56;;;;;;;4.70;3.50;;;;;;;17.88;56.23;99490.67;233286;1218;137977;-54
2022/06/12 01:52:11;;;;;;;6.70;3.40;;;;;;;17.83;56.29;99483.88;233507;1218;139136;-54
2022/06/12 01:57:21;;;;;;;4.30;3.40;;;;;;;17.81;56.58;99490.05;233427;1220;139022;-60
2022/06/12 02:02:27;;;;;;;6.50;3.40;;;;;;;17.75;56.45;99490.11;233249;1220;138225;-58
2022/06/12 02:07:38;;;;;;;6.70;3.60;;;;;;;17.70;56.71;99488.36;233336;1218;137801;-58
2022/06/12 02:18:34;;;;;;;5.50;3.90;;;;;;;17.59;56.37;99504.74;233428;1220;137862;-58
2022/06/12 02:24:08;;;;;;;9.20;3.90;;;;;;;17.54;56.57;99502.45;233463;1219;139054;-58
2022/06/12 02:29:18;;;;;;;4.80;3.70;;;;;;;17.51;56.73;99499.66;233414;1219;139137;-57
2022/06/12 02:34:31;;;;;;;7.00;3.80;;;;;;;17.47;56.72;99500.48;233329;1219;138706;-56
2022/06/12 02:39:43;;;;;;;5.40;4.00;;;;;;;17.48;56.66;99500.80;233614;1218;138721;-57
2022/06/12 02:44:55;;;;;;;7.80;4.20;;;;;;;17.54;56.68;99505.00;233417;1220;138598;-57
2022/06/12 02:49:59;;;;;;;7.20;3.80;;;;;;;17.54;56.88;99500.54;233382;1218;138336;-56
2022/06/12 02:55:20;;;;;;;6.40;4.00;;;;;;;17.55;56.76;99507.45;233327;1219;139840;-57
2022/06/12 03:00:40;;;;;;;7.60;4.00;;;;;;;17.51;56.84;99506.12;233305;1219;138363;-57
2022/06/12 03:05:49;;;;;;;7.10;4.60;;;;;;;17.49;56.85;99510.96;233309;1219;138291;-57
2022/06/12 03:10:58;;;;;;;6.10;4.30;;;;;;;17.44;56.86;99506.90;233446;1218;138099;-55
2022/06/12 03:16:13;;;;;;;8.00;4.60;;;;;;;17.39;57.21;99507.14;233590;1219;138165;-59
2022/06/12 03:21:51;;;;;;;7.20;4.70;;;;;;;17.30;57.17;99510.73;233507;1219;138515;-58
2022/06/12 03:27:16;;;;;;;7.00;5.10;;;;;;;17.28;57.47;99518.95;233419;1219;139073;-57
2022/06/12 03:32:53;;;;;;;7.90;5.00;;;;;;;17.28;57.28;99522.17;233451;1219;138844;-61
2022/06/12 03:38:10;;;;;;;9.10;5.30;;;;;;;17.33;57.57;99517.73;233380;1219;139700;-59
2022/06/12 03:43:17;;;;;;;9.70;5.10;;;;;;;17.34;57.63;99514.77;233461;1219;138086;-61
2022/06/12 03:48:20;;;;;;;9.20;5.10;;;;;;;17.40;57.54;99521.02;233431;1219;139166;-61
2022/06/12 03:53:41;;;;;;;8.70;5.10;;;;;;;17.50;57.75;99522.48;233481;1219;138846;-62
2022/06/12 03:59:19;;;;;;;9.90;5.10;;;;;;;17.68;57.66;99529.11;233394;1219;138809;-60
2022/06/12 04:04:27;;;;;;;8.50;5.40;;;;;;;17.83;57.89;99525.14;233423;1219;138439;-60
2022/06/12 04:09:36;;;;;;;8.60;5.40;;;;;;;17.88;57.72;99524.92;233546;1220;138515;-58
2022/06/12 04:14:52;;;;;;;8.50;5.50;;;;;;;17.92;57.42;99522.05;233446;1219;139561;-58
2022/06/12 04:20:03;;;;;;;10.40;5.00;;;;;;;17.99;57.45;99531.73;233349;1219;138527;-59
2022/06/12 04:25:20;;;;;;;11.10;6.30;;;;;;;18.02;57.39;99538.30;233263;1219;138908;-60
2022/06/12 04:30:28;;;;;;;14.60;5.30;;;;;;;18.07;57.28;99539.99;233370;1219;139560;-59
2022/06/12 04:35:41;;;;;;;12.00;5.70;;;;;;;18.11;57.33;99541.63;233415;1220;138866;-60
2022/06/12 04:40:44;;;;;;;10.00;5.70;;;;;;;18.20;57.51;99543.92;233235;1219;138903;-62
2022/06/12 04:45:49;;;;;;;10.60;6.00;;;;;;;18.31;57.39;99546.06;233403;1219;138681;-60
2022/06/12 04:50:52;;;;;;;16.60;5.90;;;;;;;18.49;57.44;99550.09;233363;1219;138737;-59
2022/06/12 04:55:55;;;;;;;18.10;6.30;;;;;;;18.58;57.38;99553.23;233434;1219;138916;-60
2022/06/12 05:00:58;;;;;;;12.80;6.10;;;;;;;18.69;57.49;99558.02;233540;1219;139299;-58
2022/06/12 05:06:02;;;;;;;9.40;5.90;;;;;;;18.78;57.40;99558.88;233481;1218;138414;-59
2022/06/12 05:11:05;;;;;;;10.10;5.60;;;;;;;18.89;57.33;99554.13;233392;1220;139235;-60
2022/06/12 05:16:20;;;;;;;11.20;5.80;;;;;;;19.00;57.08;99549.45;233368;1219;138636;-63
2022/06/12 05:21:25;;;;;;;11.40;6.30;;;;;;;19.05;57.05;99550.95;233604;1219;139126;-59
2022/06/12 05:26:33;;;;;;;10.60;6.50;;;;;;;19.10;57.12;99554.27;233447;1219;138735;-58
2022/06/12 05:31:36;;;;;;;13.20;6.00;;;;;;;19.24;57.23;99551.05;233393;1219;141179;-58
2022/06/12 05:36:39;;;;;;;9.30;5.80;;;;;;;19.34;57.28;99549.75;233464;1220;138697;-58
2022/06/12 05:41:43;;;;;;;10.10;6.00;;;;;;;19.44;57.08;99546.88;233437;1219;138470;-56
2022/06/12 05:46:46;;;;;;;10.30;5.90;;;;;;;19.52;56.99;99559.11;233381;1220;139188;-56
2022/06/12 05:51:51;;;;;;;11.10;5.50;;;;;;;19.64;57.10;99565.98;233557;1219;138924;-55
2022/06/12 05:56:54;;;;;;;8.50;5.20;;;;;;;19.79;57.09;99559.20;233482;1218;139027;-58
2022/06/12 06:01:57;;;;;;;8.50;4.80;;;;;;;19.91;56.98;99559.38;233398;1218;138802;-55
2022/06/12 06:07:00;;;;;;;8.40;5.30;;;;;;;20.02;56.87;99561.02;233319;1217;138439;-59
2022/06/12 06:12:04;;;;;;;8.40;4.70;;;;;;;20.15;56.71;99562.36;233515;1217;138892;-60
2022/06/12 06:17:07;;;;;;;8.60;4.80;;;;;;;20.28;56.52;99553.88;233535;1217;138713;-59
2022/06/12 06:22:10;;;;;;;54.10;45.00;;;;;;;20.45;56.73;99554.31;233606;1217;138046;-57
2022/06/12 06:27:15;;;;;;;11.50;7.60;;;;;;;20.63;56.62;99548.46;233623;1217;140268;-57
2022/06/12 06:32:18;;;;;;;16.50;14.50;;;;;;;20.83;56.57;99553.77;233200;1217;141633;-58
2022/06/12 06:37:21;;;;;;;10.20;5.90;;;;;;;20.93;56.15;99549.11;233597;1217;138688;-56
2022/06/12 06:42:24;;;;;;;10.40;6.70;;;;;;;21.10;56.03;99555.47;233493;1217;139381;-57
2022/06/12 06:47:27;;;;;;;7.50;4.50;;;;;;;21.19;55.93;99553.09;233579;1217;139036;-58
2022/06/12 06:52:30;;;;;;;6.10;4.40;;;;;;;21.33;55.52;99552.15;233454;1217;138390;-57
2022/06/12 06:57:39;;;;;;;6.90;4.20;;;;;;;21.43;55.43;99550.56;233659;1217;138285;-58
2022/06/12 07:02:42;;;;;;;52.20;37.20;;;;;;;21.56;55.06;99549.72;233619;1217;139140;-59
2022/06/12 07:07:45;;;;;;;6.10;4.00;;;;;;;21.66;54.63;99545.26;233698;1217;139245;-60
2022/06/12 07:12:49;;;;;;;5.60;3.50;;;;;;;21.77;54.12;99544.11;233484;1217;138613;-58
2022/06/12 07:17:54;;;;;;;6.30;3.00;;;;;;;21.86;54.03;99543.23;233543;1217;138786;-58
2022/06/12 07:22:57;;;;;;;9.30;3.50;;;;;;;21.97;53.96;99546.77;233502;1217;138950;-57
2022/06/12 07:28:00;;;;;;;6.00;3.40;;;;;;;22.02;53.54;99536.75;233570;1217;140553;-61
2022/06/12 07:33:09;;;;;;;116.10;98.80;;;;;;;22.12;53.37;99535.75;233508;1217;140040;-57
2022/06/12 07:38:14;;;;;;;12.70;9.30;;;;;;;22.20;53.21;99532.24;233624;1217;138969;-61
2022/06/12 07:43:18;;;;;;;4.80;2.50;;;;;;;22.29;53.00;99531.81;233573;1217;138729;-57
2022/06/12 07:48:24;;;;;;;5.20;2.20;;;;;;;22.37;52.81;99532.77;233503;1217;138893;-54
2022/06/12 07:53:27;;;;;;;5.80;3.40;;;;;;;22.48;52.45;99535.85;233456;1215;138976;-57
2022/06/12 07:58:30;;;;;;;7.00;3.80;;;;;;;22.48;51.73;99524.45;233509;1217;139567;-58
2022/06/12 08:03:34;;;;;;;5.60;2.60;;;;;;;22.58;51.90;99519.91;233710;1217;139183;-60
2022/06/12 08:08:44;;;;;;;8.90;6.20;;;;;;;22.67;51.68;99515.22;233436;1217;139274;-63
2022/06/12 08:13:48;;;;;;;17.60;12.10;;;;;;;22.80;51.46;99521.63;233177;1217;138573;-60
2022/06/12 08:18:51;;;;;;;13.10;9.10;;;;;;;22.84;51.41;99508.69;233538;1217;139582;-60
2022/06/12 08:23:57;;;;;;;5.10;2.20;;;;;;;22.94;51.31;99510.05;233430;1217;138468;-63
2022/06/12 08:29:08;;;;;;;6.80;5.30;;;;;;;22.99;51.13;99507.49;233367;1217;138649;-59
2022/06/12 08:34:22;;;;;;;5.70;4.00;;;;;;;23.07;50.95;99503.98;233337;1217;138374;-58
2022/06/12 08:39:26;;;;;;;3.80;1.90;;;;;;;23.16;50.90;99496.63;233516;1217;138725;-59
2022/06/12 08:44:34;;;;;;;7.30;2.80;;;;;;;23.23;50.61;99498.41;233188;1217;138433;-60
2022/06/12 08:49:43;;;;;;;3.40;1.70;;;;;;;23.25;50.84;99496.02;233602;1215;139283;-62
2022/06/12 08:55:04;;;;;;;3.20;1.80;;;;;;;23.35;50.59;99496.02;233505;1217;138556;-61
2022/06/12 09:00:12;;;;;;;4.60;2.90;;;;;;;23.49;50.43;99494.52;233530;1217;138341;-59
2022/06/12 09:05:20;;;;;;;5.20;2.20;;;;;;;23.62;50.36;99494.03;233480;1217;139425;-58
2022/06/12 09:10:39;;;;;;;4.60;2.30;;;;;;;23.72;49.93;99484.30;233575;1216;138342;-58
2022/06/12 09:16:05;;;;;;;5.90;2.10;;;;;;;23.78;49.55;99485.23;233671;1217;140468;-58
2022/06/12 09:21:20;;;;;;;2.90;1.60;;;;;;;23.83;49.33;99475.66;233578;1217;138703;-57
2022/06/12 09:26:47;;;;;;;4.90;1.70;;;;;;;23.85;48.89;99480.16;233486;1217;138465;-56
2022/06/12 09:32:11;;;;;;;3.70;1.50;;;;;;;23.78;48.65;99469.03;233557;1217;139093;-56
2022/06/12 09:43:28;;;;;;;3.30;1.60;;;;;;;24.06;48.36;99455.29;233536;1217;139087;-61
2022/06/12 09:48:36;;;;;;;5.70;2.00;;;;;;;24.33;48.23;99449.77;233589;1217;138401;-60
2022/06/12 09:54:05;;;;;;;3.90;2.40;;;;;;;24.58;47.98;99445.05;233551;1217;139259;-61
2022/06/12 09:59:17;;;;;;;6.60;2.00;;;;;;;24.73;47.81;99438.88;233581;1217;138469;-58
2022/06/12 10:04:30;;;;;;;4.60;1.70;;;;;;;24.81;47.55;99433.94;233449;1217;139529;-58
2022/06/12 10:09:52;;;;;;;7.80;2.20;;;;;;;24.94;47.27;99428.05;233646;1217;140119;-56
2022/06/12 10:15:02;;;;;;;3.70;1.80;;;;;;;24.84;46.74;99435.30;233355;1217;140334;-57
2022/06/12 10:20:11;;;;;;;3.30;1.50;;;;;;;24.83;46.94;99427.70;233513;1217;139974;-59
2022/06/12 10:25:21;;;;;;;5.80;1.40;;;;;;;25.17;47.05;99426.65;233475;1217;139426;-60
2022/06/12 10:30:42;;;;;;;3.50;1.60;;;;;;;25.39;46.88;99414.66;233520;1216;139653;-57
2022/06/12 10:35:55;;;;;;;3.50;1.70;;;;;;;25.73;46.73;99401.56;233525;1217;140281;-58
2022/06/12 10:41:05;;;;;;;2.20;1.40;;;;;;;26.01;46.66;99397.98;233523;1217;139405;-58
2022/06/12 10:46:18;;;;;;;5.30;1.50;;;;;;;26.25;46.23;99399.10;233621;1216;138738;-57
2022/06/12 10:51:34;;;;;;;4.80;1.90;;;;;;;26.30;45.64;99391.16;233692;1217;138504;-56
2022/06/12 10:57:01;;;;;;;3.80;1.70;;;;;;;26.37;45.27;99391.18;233535;1217;139244;-57
2022/06/12 11:02:07;;;;;;;6.50;2.20;;;;;;;26.33;45.08;99385.32;233552;1217;138932;-58
2022/06/12 11:07:28;;;;;;;4.60;1.80;;;;;;;26.46;44.91;99380.35;233507;1217;139133;-58
2022/06/12 11:12:33;;;;;;;3.30;1.20;;;;;;;26.53;44.49;99384.71;233567;1217;139137;-55
2022/06/12 11:17:55;;;;;;;25.00;21.70;;;;;;;26.55;44.22;99380.36;233548;1215;139362;-58
2022/06/12 11:23:00;;;;;;;3.60;1.70;;;;;;;26.74;44.07;99377.96;233549;1216;138679;-57
2022/06/12 11:28:55;;;;;;;3.20;1.40;;;;;;;26.96;44.06;99374.10;233459;1217;138520;-57
2022/06/12 11:34:36;;;;;;;2.80;1.10;;;;;;;27.15;43.32;99373.66;233571;1217;138648;-58
2022/06/12 11:46:40;;;;;;;5.10;3.40;;;;;;;27.55;42.72;99356.27;232330;1217;138758;-58
2022/06/12 11:52:02;;;;;;;2.30;1.40;;;;;;;27.66;42.71;99351.61;233545;1217;139218;-56
2022/06/12 11:57:16;;;;;;;4.70;1.80;;;;;;;27.75;42.30;99339.11;233516;1217;138953;-57
2022/06/12 12:02:34;;;;;;;2.70;1.30;;;;;;;27.58;42.10;99336.56;233599;1217;139447;-58
2022/06/12 12:08:20;;;;;;;1.80;1.40;;;;;;;27.45;41.58;99332.52;233474;1217;138429;-54
2022/06/12 12:13:41;;;;;;;1.90;1.10;;;;;;;27.40;41.91;99324.09;233419;1217;138679;-55
2022/06/12 12:18:50;;;;;;;3.60;1.20;;;;;;;27.50;41.75;99322.32;233489;1217;138827;-58
2022/06/12 12:23:54;;;;;;;3.60;1.30;;;;;;;27.59;41.76;99311.97;233338;1217;138756;-57
2022/06/12 12:29:00;;;;;;;7.80;1.70;;;;;;;27.78;41.74;99315.46;233157;1216;138812;-58
2022/06/12 12:34:06;;;;;;;13.80;9.70;;;;;;;27.90;41.54;99309.70;233677;1217;139028;-59
2022/06/12 12:45:29;;;;;;;2.70;1.30;;;;;;;28.11;41.68;99305.41;233462;1217;138400;-57
2022/06/12 12:50:51;;;;;;;6.10;1.60;;;;;;;28.23;40.82;99288.85;233510;1217;138606;-57
2022/06/12 12:56:28;;;;;;;3.00;1.50;;;;;;;28.34;40.46;99289.90;233454;1217;138716;-57
2022/06/12 13:01:36;;;;;;;5.60;1.30;;;;;;;28.42;40.25;99285.20;233274;1217;139942;-58
2022/06/12 13:07:22;;;;;;;2.50;1.40;;;;;;;28.64;40.16;99277.73;233467;1217;138218;-58
2022/06/12 13:12:42;;;;;;;1.90;1.20;;;;;;;28.79;40.02;99272.00;233250;1217;138662;-54
2022/06/12 13:18:08;;;;;;;3.10;1.40;;;;;;;28.92;39.81;99271.32;233492;1217;139335;-58
2022/06/12 13:23:36;;;;;;;18.40;10.00;;;;;;;29.04;39.86;99262.48;233496;1215;139063;-58
2022/06/12 13:28:40;;;;;;;14.70;8.70;;;;;;;29.21;39.82;99257.64;233504;1217;139648;-58
2022/06/12 13:33:51;;;;;;;12.20;9.70;;;;;;;29.36;39.66;99255.70;233594;1215;140618;-57
2022/06/12 13:38:59;;;;;;;5.50;3.40;;;;;;;29.56;39.63;99258.98;233415;1217;138626;-58
2022/06/12 13:44:31;;;;;;;4.00;2.10;;;;;;;29.70;39.81;99243.73;233555;1217;139149;-58
2022/06/12 13:49:44;;;;;;;21.50;12.40;;;;;;;29.80;39.14;99243.09;233538;1217;138485;-57
2022/06/12 13:54:48;;;;;;;26.10;20.80;;;;;;;29.84;38.73;99239.07;233468;1217;139513;-60
2022/06/12 13:59:51;;;;;;;4.10;2.20;;;;;;;29.86;38.66;99236.33;233446;1217;138982;-58
2022/06/12 14:05:20;;;;;;;5.90;2.10;;;;;;;29.95;38.68;99230.30;233577;1216;138687;-58
2022/06/12 14:10:32;;;;;;;4.10;1.40;;;;;;;30.08;38.60;99227.93;233484;1216;138852;-57
2022/06/12 14:15:38;;;;;;;2.90;1.40;;;;;;;30.15;38.02;99227.88;233616;1217;138288;-57
2022/06/12 14:20:41;;;;;;;2.70;1.50;;;;;;;30.21;37.46;99226.57;233466;1217;140869;-58
2022/06/12 14:25:51;;;;;;;2.10;1.20;;;;;;;30.17;37.42;99222.92;233483;1217;139272;-56
2022/06/12 14:31:15;;;;;;;4.80;2.90;;;;;;;29.96;37.19;99223.87;233454;1217;138251;-56
2022/06/12 14:36:30;;;;;;;;;;;;;;;29.35;36.99;99220.05;233543;1217;138808;-58
2022/06/12 14:41:35;;;;;;;4.40;1.60;;;;;;;29.16;37.36;99216.42;233450;1217;127542;-57
2022/06/12 14:46:38;;;;;;;2.70;1.10;;;;;;;28.96;37.25;99210.12;233325;1217;138844;-57
2022/06/12 14:51:41;;;;;;;38.30;32.40;;;;;;;28.75;37.08;99209.30;233629;1217;138851;-57
2022/06/12 14:56:46;;;;;;;2.20;2.00;;;;;;;28.61;37.22;99207.83;233526;1217;139306;-56
2022/06/12 15:01:50;;;;;;;3.40;1.50;;;;;;;28.47;37.24;99204.05;233289;1216;138998;-58
2022/06/12 15:06:55;;;;;;;5.60;1.20;;;;;;;28.28;37.27;99199.03;233515;1217;139045;-55
2022/06/12 15:11:58;;;;;;;1.90;1.10;;;;;;;28.10;37.28;99202.08;233305;1217;138974;-57
2022/06/12 15:17:01;;;;;;;4.70;1.20;;;;;;;27.97;37.40;99200.27;233604;1215;138796;-56
2022/06/12 15:22:05;;;;;;;2.60;1.40;;;;;;;27.81;37.37;99194.82;233699;1217;139375;-57
2022/06/12 15:32:36;;;;;;;6.20;1.30;;;;;;;27.31;37.77;99186.77;233595;1215;139582;-59
2022/06/12 15:37:39;;;;;;;4.70;1.40;;;;;;;27.16;38.11;99180.63;233530;1215;139473;-58
2022/06/12 15:42:43;;;;;;;15.00;7.00;;;;;;;27.11;38.32;99177.94;233474;1217;138731;-58
2022/06/12 15:47:45;;;;;;;5.80;2.00;;;;;;;27.02;38.83;99165.91;233443;1216;138821;-58
2022/06/12 15:52:48;;;;;;;17.00;10.40;;;;;;;26.93;38.83;99167.94;233433;1217;138582;-57
2022/06/12 15:57:53;;;;;;;8.70;4.20;;;;;;;26.89;39.14;99162.33;233622;1217;139319;-57
2022/06/12 16:02:56;;;;;;;3.10;1.90;;;;;;;26.81;39.54;99158.67;233339;1217;141004;-57
2022/06/12 16:08:00;;;;;;;280.90;247.30;;;;;;;26.76;39.60;99159.94;233588;1217;138553;-58
2022/06/12 16:13:03;;;;;;;27.90;22.40;;;;;;;26.77;39.96;99157.13;233443;1217;139624;-58
2022/06/12 16:18:06;;;;;;;7.50;5.40;;;;;;;26.78;39.95;99148.98;233405;1217;139370;-54
2022/06/12 16:23:09;;;;;;;4.90;1.70;;;;;;;26.77;39.59;99148.90;233470;1215;139316;-57
2022/06/12 16:28:18;;;;;;;4.50;1.90;;;;;;;26.74;39.28;99145.12;233544;1217;139561;-55
2022/06/12 16:33:23;;;;;;;2.90;1.70;;;;;;;26.70;39.09;99137.61;233595;1217;138446;-56
2022/06/12 16:38:27;;;;;;;3.40;1.70;;;;;;;26.66;39.14;99135.95;233343;1217;138521;-57
2022/06/12 16:43:31;;;;;;;2.20;1.30;;;;;;;26.69;39.14;99136.94;233360;1217;138927;-56
2022/06/12 16:48:34;;;;;;;6.80;2.40;;;;;;;26.65;39.01;99128.92;233405;1217;139007;-57
2022/06/12 16:53:37;;;;;;;2.50;1.70;;;;;;;26.63;39.03;99129.83;233318;1217;139310;-58
2022/06/12 16:58:40;;;;;;;3.10;1.20;;;;;;;26.62;39.08;99126.38;233490;1217;138545;-59
2022/06/12 17:03:43;;;;;;;1.70;1.30;;;;;;;26.59;38.74;99126.80;233591;1215;140783;-59
2022/06/12 17:08:46;;;;;;;2.50;1.30;;;;;;;26.53;38.86;99119.77;233482;1217;139180;-57
2022/06/12 17:13:49;;;;;;;2.90;1.30;;;;;;;26.52;38.90;99117.38;233526;1217;138403;-55
2022/06/12 17:24:15;;;;;;;200.70;178.70;;;;;;;26.46;38.99;99117.75;233285;1217;139884;-57
2022/06/12 17:29:18;;;;;;;34.00;29.80;;;;;;;26.42;39.09;99110.58;233471;1217;139572;-58
2022/06/12 17:34:21;;;;;;;7.80;4.10;;;;;;;26.44;39.42;99116.31;233531;1217;138804;-58
2022/06/12 17:39:24;;;;;;;15.60;9.10;;;;;;;26.38;39.26;99115.62;233649;1217;138536;-58
2022/06/12 17:44:27;;;;;;;2.80;1.90;;;;;;;26.37;39.26;99112.46;233508;1216;138719;-58
2022/06/12 17:49:31;;;;;;;4.20;1.70;;;;;;;26.32;39.22;99106.58;233504;1217;139317;-58
2022/06/12 17:54:34;;;;;;;6.00;1.60;;;;;;;26.30;39.20;99110.11;233485;1217;138591;-56
2022/06/12 17:59:37;;;;;;;2.10;1.30;;;;;;;26.25;39.30;99112.42;233483;1217;138547;-55
2022/06/12 18:04:43;;;;;;;3.20;1.90;;;;;;;26.23;39.33;99121.30;233587;1217;139047;-58
2022/06/12 18:09:46;;;;;;;4.50;1.50;;;;;;;26.14;39.69;99112.68;233603;1216;138654;-57
2022/06/12 18:20:11;;;;;;;2.70;1.60;;;;;;;25.92;40.34;99115.25;233380;1217;138953;-57
2022/06/12 18:25:13;;;;;;;4.10;1.60;;;;;;;25.81;40.62;99118.51;233356;1217;138107;-57
2022/06/12 18:30:16;;;;;;;3.60;1.80;;;;;;;25.69;40.73;99117.77;233385;1217;139057;-59
2022/06/12 18:35:20;;;;;;;5.90;2.40;;;;;;;25.60;41.03;99119.48;233366;1217;138807;-58
2022/06/12 18:40:23;;;;;;;188.50;138.20;;;;;;;25.51;41.20;99115.95;233248;1217;139660;-57
2022/06/12 18:45:26;;;;;;;56.60;46.50;;;;;;;25.47;41.66;99122.29;233302;1217;139704;-57
2022/06/12 18:50:30;;;;;;;16.20;11.20;;;;;;;25.39;41.64;99124.77;233418;1217;138915;-57
2022/06/12 18:55:33;;;;;;;6.30;3.60;;;;;;;25.29;41.92;99127.52;233371;1217;139753;-57
2022/06/12 19:00:37;;;;;;;5.00;3.00;;;;;;;25.16;42.14;99127.16;233489;1217;139715;-52
2022/06/12 19:05:41;;;;;;;99.30;88.50;;;;;;;25.04;42.30;99138.10;233090;1217;138848;-56
2022/06/12 19:10:44;;;;;;;23.50;17.70;;;;;;;24.91;42.77;99138.82;233400;1217;140430;-55
2022/06/12 19:15:47;;;;;;;13.60;9.30;;;;;;;24.83;43.15;99141.79;233504;1217;138834;-54
2022/06/12 19:20:50;;;;;;;8.80;3.80;;;;;;;24.74;43.57;99134.36;233458;1217;139578;-56
2022/06/12 19:25:53;;;;;;;6.00;2.80;;;;;;;24.61;43.86;99134.84;233346;1217;138888;-55
2022/06/12 19:30:57;;;;;;;7.20;2.90;;;;;;;24.41;43.82;99135.98;233476;1217;139825;-56
2022/06/12 19:36:01;;;;;;;8.60;3.40;;;;;;;24.23;44.06;99142.59;233156;1217;139930;-57
2022/06/12 19:41:04;;;;;;;5.70;3.30;;;;;;;24.07;44.43;99144.65;233494;1217;138860;-54
2022/06/12 19:46:08;;;;;;;9.50;3.20;;;;;;;23.95;44.80;99148.35;233559;1217;139266;-55
2022/06/12 19:51:12;;;;;;;9.00;3.30;;;;;;;23.83;45.16;99145.13;233506;1216;138658;-57
2022/06/12 19:56:15;;;;;;;6.70;3.30;;;;;;;23.73;45.56;99146.19;233516;1217;139107;-54
2022/06/12 20:01:19;;;;;;;9.40;3.30;;;;;;;23.64;45.81;99134.20;233467;1217;139910;-54
2022/06/12 20:11:44;;;;;;;7.30;3.60;;;;;;;23.38;46.48;99122.48;233488;1216;124837;-54
2022/06/12 20:16:48;;;;;;;5.40;3.60;;;;;;;23.26;46.86;99130.89;233414;1217;138064;-56
2022/06/12 20:21:53;;;;;;;8.10;3.90;;;;;;;23.15;47.35;99127.86;233690;1217;138864;-52
2022/06/12 20:26:56;;;;;;;7.10;3.80;;;;;;;23.07;47.67;99133.23;233420;1217;138402;-55
2022/06/12 20:31:59;;;;;;;6.20;3.90;;;;;;;22.96;48.05;99139.02;233513;1217;223745;-53
2022/06/12 20:37:04;;;;;;;9.40;3.70;;;;;;;22.85;48.35;99140.02;233432;1216;138316;-56
2022/06/12 20:42:08;;;;;;;5.90;3.40;;;;;;;22.73;48.72;99139.59;233578;1217;138249;-51
2022/06/12 20:47:11;;;;;;;8.80;4.20;;;;;;;22.62;49.00;99146.25;233352;1217;138555;-50
2022/06/12 20:52:14;;;;;;;9.80;4.50;;;;;;;22.51;49.42;99143.67;233570;1217;139957;-55
2022/06/12 20:57:17;;;;;;;8.40;4.00;;;;;;;22.38;49.93;99151.36;233534;1217;141416;-58
2022/06/12 21:02:20;;;;;;;6.60;4.30;;;;;;;22.30;50.21;99160.08;233495;1217;138719;-55
2022/06/12 21:07:23;;;;;;;8.10;3.90;;;;;;;22.22;50.63;99165.09;233436;1217;138551;-56
2022/06/12 21:12:26;;;;;;;7.60;3.50;;;;;;;22.12;50.79;99154.59;233606;1217;138965;-53
2022/06/12 21:17:29;;;;;;;12.30;3.20;;;;;;;22.02;51.06;99156.67;233601;1217;138299;-55
2022/06/12 21:22:36;;;;;;;9.30;3.90;;;;;;;21.93;51.35;99155.90;233115;1217;139229;-58
2022/06/12 21:27:39;;;;;;;5.30;3.60;;;;;;;21.82;51.46;99154.01;233230;1217;138422;-55
2022/06/12 21:32:42;;;;;;;6.90;3.40;;;;;;;21.70;51.78;99145.20;233424;1217;138100;-56
2022/06/12 21:37:45;;;;;;;6.40;4.10;;;;;;;21.62;52.10;99148.08;233529;1217;138755;-55
2022/06/12 21:42:48;;;;;;;6.70;3.70;;;;;;;21.52;52.19;99146.17;233487;1217;138856;-53
2022/06/12 21:59:41;;;;;;;8.50;4.10;;;;;;;21.61;52.60;99142.85;231658;1214;965451;-58
2022/06/12 22:04:46;;;;;;;9.00;4.30;;;;;;;21.64;52.59;99136.94;234789;1208;138776;-57
2022/06/12 22:09:49;;;;;;;8.50;4.70;;;;;;;21.56;52.97;99133.09;235048;1208;137877;-57
2022/06/12 22:14:52;;;;;;;9.50;4.30;;;;;;;21.47;53.15;99130.41;234940;1210;138274;-56
2022/06/12 22:19:55;;;;;;;14.00;4.30;;;;;;;21.35;53.22;99126.98;234918;1209;138035;-59
2022/06/12 22:24:58;;;;;;;8.40;4.20;;;;;;;21.19;53.35;99126.11;234673;1210;139361;-59
2022/06/12 22:30:02;;;;;;;9.60;4.30;;;;;;;21.05;53.62;99125.08;235004;1208;161248;-58
2022/06/12 22:35:07;;;;;;;7.60;4.00;;;;;;;20.91;53.94;99126.69;234946;1210;139220;-55
2022/06/12 22:40:10;;;;;;;10.20;4.50;;;;;;;20.79;54.11;99125.58;235027;1208;139308;-56
2022/06/12 22:45:13;;;;;;;9.70;4.00;;;;;;;20.70;54.37;99116.09;235095;1208;138558;-58
2022/06/12 22:50:16;;;;;;;6.60;3.80;;;;;;;20.63;54.57;99119.89;234763;1208;138496;-58
2022/06/12 22:55:19;;;;;;;9.30;4.90;;;;;;;20.54;54.83;99121.73;234767;1210;138688;-59
2022/06/12 23:00:22;;;;;;;5.60;3.40;;;;;;;20.45;54.96;99116.30;234835;1209;138229;-58
2022/06/12 23:05:25;;;;;;;7.00;3.80;;;;;;;20.40;55.15;99110.50;234756;1209;139485;-57
2022/06/12 23:10:28;;;;;;;5.50;3.40;;;;;;;20.37;55.34;99109.32;234455;1209;138474;-58
2022/06/12 23:15:31;;;;;;;7.30;4.40;;;;;;;20.35;55.39;99105.77;234691;1209;138489;-59
2022/06/12 23:20:35;;;;;;;5.10;3.80;;;;;;;20.30;55.49;99097.77;234454;1209;138426;-60
2022/06/12 23:25:38;;;;;;;11.20;4.40;;;;;;;20.26;55.67;99096.20;234549;1208;138644;-56
2022/06/12 23:30:40;;;;;;;6.50;4.50;;;;;;;20.21;55.72;99092.84;234548;1209;138600;-56
2022/06/12 23:35:46;;;;;;;5.70;4.00;;;;;;;20.14;55.89;99091.46;234503;1209;138449;-56
2022/06/12 23:40:49;;;;;;;;;;;;;;;20.06;55.89;99088.34;234570;1210;138282;-58
2022/06/12 23:45:52;;;;;;;5.30;4.20;;;;;;;19.96;56.07;99083.22;234761;1209;125316;-58
2022/06/12 23:50:56;;;;;;;5.60;3.90;;;;;;;19.88;56.16;99089.05;234477;1208;138092;-57
2022/06/12 23:55:59;;;;;;;6.60;3.90;;;;;;;19.79;56.17;99087.76;234538;1210;137882;-57
